sensor_id;sensor_type;location;lat;lon;timestamp;P1;durP1;ratioP1;P2;durP2;ratioP2
8675;SDS011;4375;52.486;13.424;2022-08-19T00:01:12;25.17;;;11.30;;
8675;SDS011;4375;52.486;13.424;2022-08-19T00:03:38;23.00;;;10.43;;
8675;SDS011;4375;52.486;13.424;2022-08-19T00:06:04;21.30;;;9.30;;
8675;SDS011;4375;52.486;13.424;2022-08-19T00:08:30;25.87;;;11.67;;
8675;SDS011;4375;52.486;13.424;2022-08-19T00:10:56;25.07;;;11.20;;
8675;SDS011;4375;52.486;13.424;2022-08-19T00:13:22;23.27;;;10.43;;
8675;SDS011;4375;52.486;13.424;2022-08-19T00:15:48;24.97;;;12.07;;
8675;SDS011;4375;52.486;13.424;2022-08-19T00:18:13;25.90;;;11.30;;
8675;SDS011;4375;52.486;13.424;2022-08-19T00:20:39;24.40;;;11.70;;
8675;SDS011;4375;52.486;13.424;2022-08-19T00:23:05;24.13;;;11.67;;
8675;SDS011;4375;52.486;13.424;2022-08-19T00:25:31;24.00;;;11.70;;
8675;SDS011;4375;52.486;13.424;2022-08-19T00:27:58;25.03;;;12.10;;
8675;SDS011;4375;52.486;13.424;2022-08-19T00:30:24;22.97;;;11.03;;
8675;SDS011;4375;52.486;13.424;2022-08-19T00:32:52;27.33;;;11.77;;
8675;SDS011;4375;52.486;13.424;2022-08-19T00:35:20;25.70;;;11.60;;
8675;SDS011;4375;52.486;13.424;2022-08-19T00:37:46;25.23;;;10.80;;
8675;SDS011;4375;52.486;13.424;2022-08-19T00:40:13;25.47;;;11.00;;
8675;SDS011;4375;52.486;13.424;2022-08-19T00:42:40;27.00;;;11.83;;
8675;SDS011;4375;52.486;13.424;2022-08-19T00:45:17;23.60;;;11.10;;
8675;SDS011;4375;52.486;13.424;2022-08-19T00:47:45;26.07;;;11.90;;
8675;SDS011;4375;52.486;13.424;2022-08-19T00:50:13;24.90;;;11.57;;
8675;SDS011;4375;52.486;13.424;2022-08-19T00:52:42;25.43;;;11.67;;
8675;SDS011;4375;52.486;13.424;2022-08-19T00:55:28;25.33;;;12.00;;
8675;SDS011;4375;52.486;13.424;2022-08-19T00:57:57;25.57;;;11.50;;
8675;SDS011;4375;52.486;13.424;2022-08-19T01:00:30;25.10;;;12.93;;
8675;SDS011;4375;52.486;13.424;2022-08-19T01:02:56;27.37;;;12.30;;
8675;SDS011;4375;52.486;13.424;2022-08-19T01:05:24;27.60;;;12.33;;
8675;SDS011;4375;52.486;13.424;2022-08-19T01:07:52;26.70;;;12.10;;
8675;SDS011;4375;52.486;13.424;2022-08-19T01:10:20;25.90;;;12.37;;
8675;SDS011;4375;52.486;13.424;2022-08-19T01:12:49;28.70;;;13.20;;
8675;SDS011;4375;52.486;13.424;2022-08-19T01:15:18;26.77;;;13.37;;
8675;SDS011;4375;52.486;13.424;2022-08-19T01:17:47;27.17;;;12.97;;
8675;SDS011;4375;52.486;13.424;2022-08-19T01:20:14;26.37;;;13.63;;
8675;SDS011;4375;52.486;13.424;2022-08-19T01:22:45;29.67;;;14.70;;
8675;SDS011;4375;52.486;13.424;2022-08-19T01:25:14;30.17;;;14.53;;
8675;SDS011;4375;52.486;13.424;2022-08-19T01:27:43;29.50;;;14.90;;
8675;SDS011;4375;52.486;13.424;2022-08-19T01:30:13;31.13;;;14.23;;
8675;SDS011;4375;52.486;13.424;2022-08-19T01:33:00;25.80;;;12.80;;
8675;SDS011;4375;52.486;13.424;2022-08-19T01:35:27;26.57;;;13.20;;
8675;SDS011;4375;52.486;13.424;2022-08-19T01:38:03;32.40;;;14.90;;
8675;SDS011;4375;52.486;13.424;2022-08-19T01:40:35;31.90;;;14.90;;
8675;SDS011;4375;52.486;13.424;2022-08-19T01:43:03;31.00;;;15.20;;
8675;SDS011;4375;52.486;13.424;2022-08-19T01:45:30;29.87;;;14.60;;
8675;SDS011;4375;52.486;13.424;2022-08-19T01:47:57;29.37;;;15.03;;
8675;SDS011;4375;52.486;13.424;2022-08-19T01:50:23;29.40;;;15.00;;
8675;SDS011;4375;52.486;13.424;2022-08-19T01:52:49;31.47;;;15.43;;
8675;SDS011;4375;52.486;13.424;2022-08-19T01:55:17;31.90;;;15.27;;
8675;SDS011;4375;52.486;13.424;2022-08-19T01:57:47;31.23;;;15.40;;
8675;SDS011;4375;52.486;13.424;2022-08-19T02:00:17;27.90;;;13.57;;
8675;SDS011;4375;52.486;13.424;2022-08-19T02:02:45;36.00;;;17.07;;
8675;SDS011;4375;52.486;13.424;2022-08-19T02:05:11;30.33;;;14.50;;
8675;SDS011;4375;52.486;13.424;2022-08-19T02:07:38;31.40;;;14.47;;
8675;SDS011;4375;52.486;13.424;2022-08-19T02:10:06;30.70;;;15.30;;
8675;SDS011;4375;52.486;13.424;2022-08-19T02:12:34;32.93;;;16.47;;
8675;SDS011;4375;52.486;13.424;2022-08-19T02:15:00;30.90;;;14.03;;
8675;SDS011;4375;52.486;13.424;2022-08-19T02:17:27;38.37;;;15.10;;
8675;SDS011;4375;52.486;13.424;2022-08-19T02:19:54;31.47;;;13.90;;
8675;SDS011;4375;52.486;13.424;2022-08-19T02:22:21;26.73;;;13.60;;
8675;SDS011;4375;52.486;13.424;2022-08-19T02:24:47;28.13;;;13.13;;
8675;SDS011;4375;52.486;13.424;2022-08-19T02:27:13;28.87;;;14.27;;
8675;SDS011;4375;52.486;13.424;2022-08-19T02:29:39;36.20;;;14.00;;
8675;SDS011;4375;52.486;13.424;2022-08-19T02:32:06;27.77;;;12.93;;
8675;SDS011;4375;52.486;13.424;2022-08-19T02:34:32;31.30;;;13.13;;
8675;SDS011;4375;52.486;13.424;2022-08-19T02:36:58;26.97;;;12.87;;
8675;SDS011;4375;52.486;13.424;2022-08-19T02:39:24;26.87;;;13.50;;
8675;SDS011;4375;52.486;13.424;2022-08-19T02:41:49;29.23;;;14.43;;
8675;SDS011;4375;52.486;13.424;2022-08-19T02:44:17;28.70;;;14.30;;
8675;SDS011;4375;52.486;13.424;2022-08-19T02:46:44;26.07;;;13.43;;
8675;SDS011;4375;52.486;13.424;2022-08-19T02:49:10;30.20;;;15.17;;
8675;SDS011;4375;52.486;13.424;2022-08-19T02:51:38;29.07;;;14.60;;
8675;SDS011;4375;52.486;13.424;2022-08-19T02:54:07;30.10;;;14.80;;
8675;SDS011;4375;52.486;13.424;2022-08-19T02:56:35;30.57;;;16.10;;
8675;SDS011;4375;52.486;13.424;2022-08-19T02:59:02;29.40;;;15.60;;
8675;SDS011;4375;52.486;13.424;2022-08-19T03:01:33;32.30;;;16.83;;
8675;SDS011;4375;52.486;13.424;2022-08-19T03:04:00;33.17;;;17.93;;
8675;SDS011;4375;52.486;13.424;2022-08-19T03:06:27;31.20;;;15.90;;
8675;SDS011;4375;52.486;13.424;2022-08-19T03:08:53;28.47;;;14.47;;
8675;SDS011;4375;52.486;13.424;2022-08-19T03:11:24;27.10;;;14.70;;
8675;SDS011;4375;52.486;13.424;2022-08-19T03:13:52;30.33;;;14.07;;
8675;SDS011;4375;52.486;13.424;2022-08-19T03:16:20;26.27;;;13.90;;
8675;SDS011;4375;52.486;13.424;2022-08-19T03:18:48;26.30;;;14.00;;
8675;SDS011;4375;52.486;13.424;2022-08-19T03:21:17;28.57;;;13.97;;
8675;SDS011;4375;52.486;13.424;2022-08-19T03:23:48;28.77;;;13.30;;
8675;SDS011;4375;52.486;13.424;2022-08-19T03:26:14;25.87;;;13.20;;
8675;SDS011;4375;52.486;13.424;2022-08-19T03:28:41;28.70;;;14.13;;
8675;SDS011;4375;52.486;13.424;2022-08-19T03:31:09;26.37;;;13.40;;
8675;SDS011;4375;52.486;13.424;2022-08-19T03:33:37;28.27;;;14.40;;
8675;SDS011;4375;52.486;13.424;2022-08-19T03:38:39;27.23;;;13.33;;
8675;SDS011;4375;52.486;13.424;2022-08-19T03:41:07;27.97;;;14.30;;
8675;SDS011;4375;52.486;13.424;2022-08-19T03:43:36;29.10;;;14.17;;
8675;SDS011;4375;52.486;13.424;2022-08-19T03:46:13;25.93;;;13.10;;
8675;SDS011;4375;52.486;13.424;2022-08-19T03:48:41;30.63;;;14.40;;
8675;SDS011;4375;52.486;13.424;2022-08-19T03:51:15;25.97;;;12.53;;
8675;SDS011;4375;52.486;13.424;2022-08-19T03:53:42;27.70;;;14.03;;
8675;SDS011;4375;52.486;13.424;2022-08-19T03:56:09;31.07;;;14.90;;
8675;SDS011;4375;52.486;13.424;2022-08-19T03:58:35;28.17;;;14.00;;
8675;SDS011;4375;52.486;13.424;2022-08-19T04:01:02;34.77;;;15.37;;
8675;SDS011;4375;52.486;13.424;2022-08-19T04:03:33;27.20;;;13.90;;
8675;SDS011;4375;52.486;13.424;2022-08-19T04:06:08;27.37;;;13.07;;
8675;SDS011;4375;52.486;13.424;2022-08-19T04:08:39;27.53;;;13.87;;
8675;SDS011;4375;52.486;13.424;2022-08-19T04:11:07;28.73;;;14.70;;
8675;SDS011;4375;52.486;13.424;2022-08-19T04:13:38;27.17;;;14.90;;
8675;SDS011;4375;52.486;13.424;2022-08-19T04:16:04;28.30;;;14.87;;
8675;SDS011;4375;52.486;13.424;2022-08-19T04:18:31;28.07;;;13.93;;
8675;SDS011;4375;52.486;13.424;2022-08-19T04:21:00;29.40;;;14.73;;
8675;SDS011;4375;52.486;13.424;2022-08-19T04:23:26;28.30;;;14.27;;
8675;SDS011;4375;52.486;13.424;2022-08-19T04:25:53;31.53;;;16.00;;
8675;SDS011;4375;52.486;13.424;2022-08-19T04:28:19;28.73;;;14.10;;
8675;SDS011;4375;52.486;13.424;2022-08-19T04:30:46;26.63;;;13.63;;
8675;SDS011;4375;52.486;13.424;2022-08-19T04:33:14;29.07;;;13.53;;
8675;SDS011;4375;52.486;13.424;2022-08-19T04:35:43;27.90;;;14.07;;
8675;SDS011;4375;52.486;13.424;2022-08-19T04:38:10;27.57;;;14.20;;
8675;SDS011;4375;52.486;13.424;2022-08-19T04:40:40;27.40;;;13.73;;
8675;SDS011;4375;52.486;13.424;2022-08-19T04:43:30;25.37;;;13.07;;
8675;SDS011;4375;52.486;13.424;2022-08-19T04:45:57;28.43;;;13.47;;
8675;SDS011;4375;52.486;13.424;2022-08-19T04:48:28;27.33;;;13.57;;
8675;SDS011;4375;52.486;13.424;2022-08-19T04:50:57;27.40;;;13.87;;
8675;SDS011;4375;52.486;13.424;2022-08-19T04:53:33;25.70;;;14.03;;
8675;SDS011;4375;52.486;13.424;2022-08-19T04:56:03;26.33;;;13.20;;
8675;SDS011;4375;52.486;13.424;2022-08-19T04:58:36;26.27;;;11.97;;
8675;SDS011;4375;52.486;13.424;2022-08-19T05:01:03;26.17;;;13.97;;
8675;SDS011;4375;52.486;13.424;2022-08-19T05:03:29;27.50;;;14.03;;
8675;SDS011;4375;52.486;13.424;2022-08-19T05:05:58;29.70;;;14.13;;
8675;SDS011;4375;52.486;13.424;2022-08-19T05:08:35;30.60;;;13.33;;
8675;SDS011;4375;52.486;13.424;2022-08-19T05:11:14;29.00;;;14.70;;
8675;SDS011;4375;52.486;13.424;2022-08-19T05:13:45;25.20;;;13.67;;
8675;SDS011;4375;52.486;13.424;2022-08-19T05:16:13;27.77;;;14.40;;
8675;SDS011;4375;52.486;13.424;2022-08-19T05:18:40;29.50;;;14.80;;
8675;SDS011;4375;52.486;13.424;2022-08-19T05:21:25;30.90;;;13.70;;
8675;SDS011;4375;52.486;13.424;2022-08-19T05:24:10;26.43;;;12.87;;
8675;SDS011;4375;52.486;13.424;2022-08-19T05:26:38;27.63;;;13.47;;
8675;SDS011;4375;52.486;13.424;2022-08-19T05:29:05;27.33;;;13.73;;
8675;SDS011;4375;52.486;13.424;2022-08-19T05:31:32;27.63;;;13.57;;
8675;SDS011;4375;52.486;13.424;2022-08-19T05:33:59;28.53;;;12.87;;
8675;SDS011;4375;52.486;13.424;2022-08-19T05:36:26;28.73;;;13.77;;
8675;SDS011;4375;52.486;13.424;2022-08-19T05:38:52;28.07;;;12.93;;
8675;SDS011;4375;52.486;13.424;2022-08-19T05:41:18;25.90;;;12.93;;
8675;SDS011;4375;52.486;13.424;2022-08-19T05:43:45;28.57;;;13.73;;
8675;SDS011;4375;52.486;13.424;2022-08-19T05:46:18;26.57;;;13.47;;
8675;SDS011;4375;52.486;13.424;2022-08-19T05:48:44;27.80;;;13.10;;
8675;SDS011;4375;52.486;13.424;2022-08-19T05:51:10;27.47;;;14.00;;
8675;SDS011;4375;52.486;13.424;2022-08-19T05:53:37;29.27;;;13.90;;
8675;SDS011;4375;52.486;13.424;2022-08-19T05:56:06;26.87;;;13.53;;
8675;SDS011;4375;52.486;13.424;2022-08-19T05:58:37;29.87;;;14.30;;
8675;SDS011;4375;52.486;13.424;2022-08-19T06:01:04;28.73;;;14.00;;
8675;SDS011;4375;52.486;13.424;2022-08-19T06:03:34;26.60;;;13.40;;
8675;SDS011;4375;52.486;13.424;2022-08-19T06:06:02;27.93;;;14.20;;
8675;SDS011;4375;52.486;13.424;2022-08-19T06:08:30;33.87;;;14.40;;
8675;SDS011;4375;52.486;13.424;2022-08-19T06:10:56;25.37;;;12.50;;
8675;SDS011;4375;52.486;13.424;2022-08-19T06:13:22;27.63;;;13.90;;
8675;SDS011;4375;52.486;13.424;2022-08-19T06:15:48;26.83;;;13.50;;
8675;SDS011;4375;52.486;13.424;2022-08-19T06:18:14;29.63;;;13.50;;
8675;SDS011;4375;52.486;13.424;2022-08-19T06:20:41;27.00;;;13.20;;
8675;SDS011;4375;52.486;13.424;2022-08-19T06:23:07;26.63;;;13.33;;
8675;SDS011;4375;52.486;13.424;2022-08-19T06:25:33;27.50;;;14.40;;
8675;SDS011;4375;52.486;13.424;2022-08-19T06:28:00;26.53;;;14.40;;
8675;SDS011;4375;52.486;13.424;2022-08-19T06:30:26;26.93;;;14.47;;
8675;SDS011;4375;52.486;13.424;2022-08-19T06:32:52;30.87;;;15.93;;
8675;SDS011;4375;52.486;13.424;2022-08-19T06:35:18;31.33;;;15.70;;
8675;SDS011;4375;52.486;13.424;2022-08-19T06:37:44;29.70;;;15.10;;
8675;SDS011;4375;52.486;13.424;2022-08-19T06:40:10;31.70;;;14.57;;
8675;SDS011;4375;52.486;13.424;2022-08-19T06:42:37;28.23;;;13.90;;
8675;SDS011;4375;52.486;13.424;2022-08-19T06:45:03;31.30;;;15.03;;
8675;SDS011;4375;52.486;13.424;2022-08-19T06:47:30;28.07;;;14.37;;
8675;SDS011;4375;52.486;13.424;2022-08-19T06:49:57;27.10;;;14.40;;
8675;SDS011;4375;52.486;13.424;2022-08-19T06:52:32;28.47;;;15.13;;
8675;SDS011;4375;52.486;13.424;2022-08-19T06:54:59;29.60;;;15.37;;
8675;SDS011;4375;52.486;13.424;2022-08-19T06:57:25;30.03;;;15.80;;
8675;SDS011;4375;52.486;13.424;2022-08-19T06:59:52;35.83;;;16.17;;
8675;SDS011;4375;52.486;13.424;2022-08-19T07:02:18;28.47;;;13.60;;
8675;SDS011;4375;52.486;13.424;2022-08-19T07:04:45;28.30;;;14.47;;
8675;SDS011;4375;52.486;13.424;2022-08-19T07:07:12;32.50;;;16.20;;
8675;SDS011;4375;52.486;13.424;2022-08-19T07:09:40;27.77;;;13.53;;
8675;SDS011;4375;52.486;13.424;2022-08-19T07:12:08;31.00;;;15.07;;
8675;SDS011;4375;52.486;13.424;2022-08-19T07:14:36;35.53;;;15.33;;
8675;SDS011;4375;52.486;13.424;2022-08-19T07:17:04;30.00;;;15.20;;
8675;SDS011;4375;52.486;13.424;2022-08-19T07:19:32;33.60;;;15.23;;
8675;SDS011;4375;52.486;13.424;2022-08-19T07:22:03;28.00;;;15.10;;
8675;SDS011;4375;52.486;13.424;2022-08-19T07:24:29;28.30;;;15.10;;
8675;SDS011;4375;52.486;13.424;2022-08-19T07:26:57;27.90;;;14.73;;
8675;SDS011;4375;52.486;13.424;2022-08-19T07:29:26;32.30;;;16.20;;
8675;SDS011;4375;52.486;13.424;2022-08-19T07:31:53;28.13;;;15.50;;
8675;SDS011;4375;52.486;13.424;2022-08-19T07:34:21;28.67;;;14.93;;
8675;SDS011;4375;52.486;13.424;2022-08-19T07:36:48;30.37;;;15.97;;
8675;SDS011;4375;52.486;13.424;2022-08-19T07:39:16;32.17;;;15.07;;
8675;SDS011;4375;52.486;13.424;2022-08-19T07:41:44;30.50;;;17.00;;
8675;SDS011;4375;52.486;13.424;2022-08-19T07:44:10;30.30;;;15.83;;
8675;SDS011;4375;52.486;13.424;2022-08-19T07:46:37;32.70;;;16.17;;
8675;SDS011;4375;52.486;13.424;2022-08-19T07:49:05;28.93;;;16.67;;
8675;SDS011;4375;52.486;13.424;2022-08-19T07:51:33;27.60;;;16.20;;
8675;SDS011;4375;52.486;13.424;2022-08-19T07:53:59;30.20;;;16.60;;
8675;SDS011;4375;52.486;13.424;2022-08-19T07:56:25;39.43;;;17.30;;
8675;SDS011;4375;52.486;13.424;2022-08-19T07:58:51;28.80;;;15.83;;
8675;SDS011;4375;52.486;13.424;2022-08-19T08:01:19;30.97;;;16.10;;
8675;SDS011;4375;52.486;13.424;2022-08-19T08:03:48;31.23;;;16.33;;
8675;SDS011;4375;52.486;13.424;2022-08-19T08:06:33;30.27;;;16.37;;
8675;SDS011;4375;52.486;13.424;2022-08-19T08:09:20;29.60;;;15.80;;
8675;SDS011;4375;52.486;13.424;2022-08-19T08:12:03;29.60;;;16.40;;
8675;SDS011;4375;52.486;13.424;2022-08-19T08:14:39;28.07;;;15.93;;
8675;SDS011;4375;52.486;13.424;2022-08-19T08:17:12;30.03;;;16.63;;
8675;SDS011;4375;52.486;13.424;2022-08-19T08:19:43;30.60;;;17.87;;
8675;SDS011;4375;52.486;13.424;2022-08-19T08:22:09;28.60;;;16.10;;
8675;SDS011;4375;52.486;13.424;2022-08-19T08:27:40;31.40;;;15.70;;
8675;SDS011;4375;52.486;13.424;2022-08-19T08:30:11;30.90;;;17.40;;
8675;SDS011;4375;52.486;13.424;2022-08-19T08:32:42;31.30;;;17.07;;
8675;SDS011;4375;52.486;13.424;2022-08-19T08:35:09;29.30;;;16.90;;
8675;SDS011;4375;52.486;13.424;2022-08-19T08:37:38;31.73;;;17.30;;
8675;SDS011;4375;52.486;13.424;2022-08-19T08:40:05;32.73;;;19.40;;
8675;SDS011;4375;52.486;13.424;2022-08-19T08:42:44;29.80;;;17.63;;
8675;SDS011;4375;52.486;13.424;2022-08-19T08:45:30;31.13;;;16.43;;
8675;SDS011;4375;52.486;13.424;2022-08-19T08:47:58;30.30;;;15.73;;
8675;SDS011;4375;52.486;13.424;2022-08-19T08:50:30;29.17;;;16.77;;
8675;SDS011;4375;52.486;13.424;2022-08-19T08:53:01;27.77;;;15.67;;
8675;SDS011;4375;52.486;13.424;2022-08-19T08:55:30;31.07;;;16.43;;
8675;SDS011;4375;52.486;13.424;2022-08-19T09:00:37;30.30;;;17.23;;
8675;SDS011;4375;52.486;13.424;2022-08-19T09:03:06;31.73;;;16.90;;
8675;SDS011;4375;52.486;13.424;2022-08-19T09:05:44;31.50;;;17.80;;
8675;SDS011;4375;52.486;13.424;2022-08-19T09:11:03;31.47;;;18.33;;
8675;SDS011;4375;52.486;13.424;2022-08-19T09:13:44;36.33;;;16.90;;
8675;SDS011;4375;52.486;13.424;2022-08-19T09:16:34;29.43;;;17.47;;
8675;SDS011;4375;52.486;13.424;2022-08-19T09:19:02;31.30;;;17.07;;
8675;SDS011;4375;52.486;13.424;2022-08-19T09:21:29;34.03;;;17.17;;
8675;SDS011;4375;52.486;13.424;2022-08-19T09:23:54;38.07;;;17.97;;
8675;SDS011;4375;52.486;13.424;2022-08-19T09:26:22;37.90;;;17.83;;
8675;SDS011;4375;52.486;13.424;2022-08-19T09:28:49;28.80;;;16.20;;
8675;SDS011;4375;52.486;13.424;2022-08-19T09:31:19;32.57;;;17.63;;
8675;SDS011;4375;52.486;13.424;2022-08-19T09:33:46;28.70;;;16.70;;
8675;SDS011;4375;52.486;13.424;2022-08-19T09:36:14;29.10;;;16.27;;
8675;SDS011;4375;52.486;13.424;2022-08-19T09:38:41;29.60;;;18.00;;
8675;SDS011;4375;52.486;13.424;2022-08-19T09:41:14;28.53;;;16.77;;
8675;SDS011;4375;52.486;13.424;2022-08-19T09:43:43;28.50;;;15.87;;
8675;SDS011;4375;52.486;13.424;2022-08-19T09:46:11;28.40;;;16.30;;
8675;SDS011;4375;52.486;13.424;2022-08-19T09:48:38;28.57;;;16.10;;
8675;SDS011;4375;52.486;13.424;2022-08-19T09:51:07;33.20;;;17.00;;
8675;SDS011;4375;52.486;13.424;2022-08-19T09:53:34;35.10;;;18.13;;
8675;SDS011;4375;52.486;13.424;2022-08-19T09:56:00;29.77;;;16.60;;
8675;SDS011;4375;52.486;13.424;2022-08-19T09:58:33;29.70;;;17.37;;
8675;SDS011;4375;52.486;13.424;2022-08-19T10:01:00;32.23;;;18.07;;
8675;SDS011;4375;52.486;13.424;2022-08-19T10:03:27;30.87;;;16.13;;
8675;SDS011;4375;52.486;13.424;2022-08-19T10:05:55;29.10;;;15.90;;
8675;SDS011;4375;52.486;13.424;2022-08-19T10:08:23;28.93;;;16.87;;
8675;SDS011;4375;52.486;13.424;2022-08-19T10:10:57;27.03;;;16.40;;
8675;SDS011;4375;52.486;13.424;2022-08-19T10:13:47;31.90;;;18.10;;
8675;SDS011;4375;52.486;13.424;2022-08-19T10:16:14;31.80;;;16.60;;
8675;SDS011;4375;52.486;13.424;2022-08-19T10:18:43;27.67;;;15.37;;
8675;SDS011;4375;52.486;13.424;2022-08-19T10:23:47;28.80;;;15.03;;
8675;SDS011;4375;52.486;13.424;2022-08-19T10:26:16;30.13;;;14.93;;
8675;SDS011;4375;52.486;13.424;2022-08-19T10:28:44;26.13;;;15.50;;
8675;SDS011;4375;52.486;13.424;2022-08-19T10:31:11;28.87;;;15.50;;
8675;SDS011;4375;52.486;13.424;2022-08-19T10:33:39;29.63;;;15.37;;
8675;SDS011;4375;52.486;13.424;2022-08-19T10:36:07;29.77;;;15.57;;
8675;SDS011;4375;52.486;13.424;2022-08-19T10:38:42;28.33;;;14.70;;
8675;SDS011;4375;52.486;13.424;2022-08-19T10:41:15;26.40;;;15.03;;
8675;SDS011;4375;52.486;13.424;2022-08-19T10:43:41;25.17;;;13.73;;
8675;SDS011;4375;52.486;13.424;2022-08-19T10:46:08;27.90;;;15.90;;
8675;SDS011;4375;52.486;13.424;2022-08-19T10:48:35;27.97;;;14.80;;
8675;SDS011;4375;52.486;13.424;2022-08-19T10:51:01;28.10;;;15.40;;
8675;SDS011;4375;52.486;13.424;2022-08-19T10:53:47;31.40;;;15.13;;
8675;SDS011;4375;52.486;13.424;2022-08-19T10:56:13;28.27;;;14.17;;
8675;SDS011;4375;52.486;13.424;2022-08-19T10:58:58;27.73;;;14.23;;
8675;SDS011;4375;52.486;13.424;2022-08-19T11:01:24;29.67;;;15.03;;
8675;SDS011;4375;52.486;13.424;2022-08-19T11:03:51;25.57;;;14.20;;
8675;SDS011;4375;52.486;13.424;2022-08-19T11:06:17;28.50;;;15.00;;
8675;SDS011;4375;52.486;13.424;2022-08-19T11:08:44;28.10;;;14.30;;
8675;SDS011;4375;52.486;13.424;2022-08-19T11:11:11;26.73;;;14.80;;
8675;SDS011;4375;52.486;13.424;2022-08-19T11:13:38;27.27;;;14.67;;
8675;SDS011;4375;52.486;13.424;2022-08-19T11:16:09;27.90;;;14.43;;
8675;SDS011;4375;52.486;13.424;2022-08-19T11:18:51;28.53;;;13.70;;
8675;SDS011;4375;52.486;13.424;2022-08-19T11:23:47;23.70;;;12.90;;
8675;SDS011;4375;52.486;13.424;2022-08-19T11:26:16;26.50;;;12.70;;
8675;SDS011;4375;52.486;13.424;2022-08-19T11:28:42;30.27;;;13.93;;
8675;SDS011;4375;52.486;13.424;2022-08-19T11:31:16;26.40;;;13.90;;
8675;SDS011;4375;52.486;13.424;2022-08-19T11:33:44;27.20;;;13.40;;
8675;SDS011;4375;52.486;13.424;2022-08-19T11:36:11;23.67;;;12.53;;
8675;SDS011;4375;52.486;13.424;2022-08-19T11:38:38;27.50;;;13.63;;
8675;SDS011;4375;52.486;13.424;2022-08-19T11:41:05;26.17;;;12.57;;
8675;SDS011;4375;52.486;13.424;2022-08-19T11:43:34;26.40;;;12.77;;
8675;SDS011;4375;52.486;13.424;2022-08-19T11:46:07;27.30;;;13.27;;
8675;SDS011;4375;52.486;13.424;2022-08-19T11:48:35;28.00;;;11.97;;
8675;SDS011;4375;52.486;13.424;2022-08-19T11:51:09;23.50;;;12.30;;
8675;SDS011;4375;52.486;13.424;2022-08-19T11:53:40;23.87;;;12.73;;
8675;SDS011;4375;52.486;13.424;2022-08-19T11:56:06;25.23;;;12.83;;
8675;SDS011;4375;52.486;13.424;2022-08-19T11:58:33;24.13;;;11.77;;
8675;SDS011;4375;52.486;13.424;2022-08-19T12:01:00;26.27;;;12.20;;
8675;SDS011;4375;52.486;13.424;2022-08-19T12:03:29;24.47;;;12.13;;
8675;SDS011;4375;52.486;13.424;2022-08-19T12:05:55;24.70;;;12.87;;
8675;SDS011;4375;52.486;13.424;2022-08-19T12:08:21;23.00;;;11.50;;
8675;SDS011;4375;52.486;13.424;2022-08-19T12:10:47;24.67;;;11.67;;
8675;SDS011;4375;52.486;13.424;2022-08-19T12:13:13;26.00;;;11.63;;
8675;SDS011;4375;52.486;13.424;2022-08-19T12:15:43;22.87;;;10.83;;
8675;SDS011;4375;52.486;13.424;2022-08-19T12:18:10;23.43;;;11.17;;
8675;SDS011;4375;52.486;13.424;2022-08-19T12:20:37;22.50;;;10.60;;
8675;SDS011;4375;52.486;13.424;2022-08-19T12:23:04;23.67;;;11.83;;
8675;SDS011;4375;52.486;13.424;2022-08-19T12:25:30;21.20;;;9.93;;
8675;SDS011;4375;52.486;13.424;2022-08-19T12:27:58;23.27;;;11.27;;
8675;SDS011;4375;52.486;13.424;2022-08-19T12:30:24;22.33;;;9.47;;
8675;SDS011;4375;52.486;13.424;2022-08-19T12:32:50;24.20;;;9.73;;
8675;SDS011;4375;52.486;13.424;2022-08-19T12:35:16;21.10;;;9.50;;
8675;SDS011;4375;52.486;13.424;2022-08-19T12:37:45;24.80;;;10.23;;
8675;SDS011;4375;52.486;13.424;2022-08-19T12:40:12;22.00;;;9.40;;
8675;SDS011;4375;52.486;13.424;2022-08-19T12:42:39;24.10;;;10.00;;
8675;SDS011;4375;52.486;13.424;2022-08-19T12:45:09;21.77;;;9.97;;
8675;SDS011;4375;52.486;13.424;2022-08-19T12:47:36;24.20;;;10.40;;
8675;SDS011;4375;52.486;13.424;2022-08-19T12:50:02;23.53;;;10.50;;
8675;SDS011;4375;52.486;13.424;2022-08-19T12:52:29;23.97;;;10.60;;
8675;SDS011;4375;52.486;13.424;2022-08-19T12:54:55;20.90;;;9.27;;
8675;SDS011;4375;52.486;13.424;2022-08-19T12:57:26;23.67;;;10.20;;
8675;SDS011;4375;52.486;13.424;2022-08-19T12:59:52;22.20;;;10.00;;
8675;SDS011;4375;52.486;13.424;2022-08-19T13:02:18;21.90;;;9.87;;
8675;SDS011;4375;52.486;13.424;2022-08-19T13:04:45;23.47;;;10.33;;
8675;SDS011;4375;52.486;13.424;2022-08-19T13:07:11;23.77;;;10.10;;
8675;SDS011;4375;52.486;13.424;2022-08-19T13:09:37;23.53;;;11.13;;
8675;SDS011;4375;52.486;13.424;2022-08-19T13:12:05;20.50;;;9.37;;
8675;SDS011;4375;52.486;13.424;2022-08-19T13:14:33;22.60;;;10.77;;
8675;SDS011;4375;52.486;13.424;2022-08-19T13:17:00;22.03;;;10.20;;
8675;SDS011;4375;52.486;13.424;2022-08-19T13:19:25;22.70;;;11.17;;
8675;SDS011;4375;52.486;13.424;2022-08-19T13:21:52;25.13;;;10.77;;
8675;SDS011;4375;52.486;13.424;2022-08-19T13:24:22;24.90;;;11.20;;
8675;SDS011;4375;52.486;13.424;2022-08-19T13:26:48;24.93;;;12.10;;
8675;SDS011;4375;52.486;13.424;2022-08-19T13:29:13;22.90;;;10.20;;
8675;SDS011;4375;52.486;13.424;2022-08-19T13:31:57;21.83;;;10.40;;
8675;SDS011;4375;52.486;13.424;2022-08-19T13:34:42;22.93;;;10.67;;
8675;SDS011;4375;52.486;13.424;2022-08-19T13:37:07;23.03;;;10.90;;
8675;SDS011;4375;52.486;13.424;2022-08-19T13:39:34;24.30;;;11.60;;
8675;SDS011;4375;52.486;13.424;2022-08-19T13:42:00;23.57;;;10.77;;
8675;SDS011;4375;52.486;13.424;2022-08-19T13:44:26;26.53;;;12.47;;
8675;SDS011;4375;52.486;13.424;2022-08-19T13:46:55;24.27;;;11.50;;
8675;SDS011;4375;52.486;13.424;2022-08-19T13:49:27;22.07;;;10.10;;
8675;SDS011;4375;52.486;13.424;2022-08-19T13:51:55;24.00;;;11.23;;
8675;SDS011;4375;52.486;13.424;2022-08-19T13:54:20;23.00;;;11.77;;
8675;SDS011;4375;52.486;13.424;2022-08-19T13:56:46;22.53;;;11.07;;
8675;SDS011;4375;52.486;13.424;2022-08-19T13:59:12;22.70;;;10.90;;
8675;SDS011;4375;52.486;13.424;2022-08-19T14:01:38;24.90;;;11.10;;
8675;SDS011;4375;52.486;13.424;2022-08-19T14:04:04;22.70;;;10.60;;
8675;SDS011;4375;52.486;13.424;2022-08-19T14:06:31;23.43;;;10.90;;
8675;SDS011;4375;52.486;13.424;2022-08-19T14:08:57;24.60;;;11.70;;
8675;SDS011;4375;52.486;13.424;2022-08-19T14:11:22;24.33;;;11.73;;
8675;SDS011;4375;52.486;13.424;2022-08-19T14:13:49;24.43;;;11.37;;
8675;SDS011;4375;52.486;13.424;2022-08-19T14:16:15;23.80;;;10.93;;
8675;SDS011;4375;52.486;13.424;2022-08-19T14:18:41;23.50;;;11.20;;
8675;SDS011;4375;52.486;13.424;2022-08-19T14:21:07;22.50;;;11.00;;
8675;SDS011;4375;52.486;13.424;2022-08-19T14:23:38;24.20;;;11.40;;
8675;SDS011;4375;52.486;13.424;2022-08-19T14:26:06;24.30;;;12.03;;
8675;SDS011;4375;52.486;13.424;2022-08-19T14:28:36;25.30;;;11.87;;
8675;SDS011;4375;52.486;13.424;2022-08-19T14:31:04;24.30;;;12.20;;
8675;SDS011;4375;52.486;13.424;2022-08-19T14:33:30;23.37;;;12.13;;
8675;SDS011;4375;52.486;13.424;2022-08-19T14:35:57;24.97;;;11.57;;
8675;SDS011;4375;52.486;13.424;2022-08-19T14:38:22;24.03;;;10.83;;
8675;SDS011;4375;52.486;13.424;2022-08-19T14:40:48;26.87;;;12.00;;
8675;SDS011;4375;52.486;13.424;2022-08-19T14:43:14;23.57;;;11.63;;
8675;SDS011;4375;52.486;13.424;2022-08-19T14:45:40;21.90;;;11.47;;
8675;SDS011;4375;52.486;13.424;2022-08-19T14:48:06;24.10;;;11.63;;
8675;SDS011;4375;52.486;13.424;2022-08-19T14:50:33;25.90;;;12.30;;
8675;SDS011;4375;52.486;13.424;2022-08-19T14:53:02;22.00;;;11.13;;
8675;SDS011;4375;52.486;13.424;2022-08-19T14:55:30;27.30;;;11.80;;
8675;SDS011;4375;52.486;13.424;2022-08-19T14:57:56;26.07;;;11.63;;
8675;SDS011;4375;52.486;13.424;2022-08-19T15:00:23;24.33;;;11.67;;